Hamilton, Texas
Current Conditions -  °F | °C
As of 9:35 AM on Saturday 20 Dec 2014 (Local Time) from KMNZ Reporting Station
Overcast Overcast  
Wind Chill: 44°   Ceiling: 1300
Heat Index: 46°   Visibility: 10mi
Dew Point: 46°   Wind: 5mph
Humidity: 99%   Direction: 130°SE
Pressure: 30.24"   Gusts: NA
Location:  31.7°N, 98.12°W
Report Text: KMNZ 201535Z AUTO 13004KT 10SM SCT007 OVC013 08/08 A3024 RMK AO2 T00780077
Loading
Personal Weather Stations






























Interactive Weather Map New forecast layout! Learn more

10-Day Weather Forecast

Advertisements
Track Severe Weather on mobile